createdAt,value
2023-02-28T00:00:10.992Z,102932.00
2023-02-28T00:02:41.042Z,102924.00
2023-02-28T00:05:11.260Z,102929.38
2023-02-28T00:07:39.613Z,102922.28
2023-02-28T00:10:09.677Z,102920.53
2023-02-28T00:12:38.462Z,102925.03
2023-02-28T00:15:08.771Z,102924.16
2023-02-28T00:17:37.353Z,102918.81
2023-02-28T00:20:09.265Z,102920.69
2023-02-28T00:22:37.932Z,102921.56
2023-02-28T00:25:08.009Z,102917.09
2023-02-28T00:27:36.716Z,102918.88
2023-02-28T00:30:06.276Z,102918.88
2023-02-28T00:32:35.430Z,102917.09
2023-02-28T00:35:03.671Z,102918.91
2023-02-28T00:37:33.291Z,102910.84
2023-02-28T00:40:01.579Z,102923.34
2023-02-28T00:42:29.885Z,102921.56
2023-02-28T00:44:58.069Z,102919.78
2023-02-28T00:47:26.164Z,102913.53
2023-02-28T00:49:54.433Z,102920.69
2023-02-28T00:52:22.515Z,102922.53
2023-02-28T00:54:51.966Z,102925.22
2023-02-28T00:57:20.048Z,102929.69
2023-02-28T00:59:48.318Z,102927.00
2023-02-28T01:02:16.438Z,102929.69
2023-02-28T01:04:44.573Z,102934.16
2023-02-28T01:07:12.698Z,102924.41
2023-02-28T01:09:40.768Z,102929.75
2023-02-28T01:12:10.550Z,102932.47
2023-02-28T01:14:38.679Z,102936.00
2023-02-28T01:17:06.796Z,102924.44
2023-02-28T01:19:34.894Z,102923.53
2023-02-28T01:22:04.282Z,102928.94
2023-02-28T01:24:34.337Z,102924.53
2023-02-28T01:27:02.569Z,102919.19
2023-02-28T01:29:32.017Z,102922.75
2023-02-28T01:32:01.149Z,102925.38
2023-02-28T01:34:29.320Z,102928.94
2023-02-28T01:36:59.821Z,102917.28
2023-02-28T01:39:28.445Z,102911.94
2023-02-28T01:41:56.508Z,102904.81
2023-02-28T01:45:01.688Z,102906.53
2023-02-28T01:47:33.731Z,102906.56
2023-02-28T01:50:04.030Z,102905.66
2023-02-28T01:52:32.861Z,102902.13
2023-02-28T01:55:03.486Z,102903.03
2023-02-28T01:57:38.466Z,102902.13
2023-02-28T02:00:10.196Z,102905.69
2023-02-28T02:02:43.961Z,102901.25
2023-02-28T02:05:16.221Z,102912.81
2023-02-28T02:07:47.346Z,102906.59
2023-02-28T02:10:17.793Z,102908.44
2023-02-28T02:13:10.205Z,102902.22
2023-02-28T02:15:45.622Z,102905.84
2023-02-28T02:18:21.084Z,102907.72
2023-02-28T02:21:11.518Z,102912.22
2023-02-28T02:24:19.357Z,102906.03
2023-02-28T02:27:08.004Z,102902.47
2023-02-28T02:29:59.115Z,102903.38
2023-02-28T02:33:05.145Z,102903.34
2023-02-28T02:35:38.581Z,102900.66
2023-02-28T02:38:10.804Z,102904.22
2023-02-28T02:40:44.680Z,102902.47
2023-02-28T02:43:17.679Z,102907.81
2023-02-28T02:45:49.946Z,102906.91
2023-02-28T02:48:19.992Z,102908.72
2023-02-28T02:50:52.653Z,102905.16
2023-02-28T02:53:24.298Z,102905.13
2023-02-28T02:55:55.402Z,102906.91
2023-02-28T02:58:26.841Z,102903.34
2023-02-28T03:00:56.956Z,102903.31
2023-02-28T03:03:29.801Z,102899.78
2023-02-28T03:06:00.648Z,102909.59
2023-02-28T03:08:30.075Z,102907.88
2023-02-28T03:11:00.319Z,102912.34
2023-02-28T03:14:06.653Z,102907.88
2023-02-28T03:16:38.640Z,102917.69
2023-02-28T03:19:23.902Z,102922.13
2023-02-28T03:22:02.635Z,102921.25
2023-02-28T03:24:36.036Z,102926.59
2023-02-28T03:27:09.328Z,102931.97
2023-02-28T03:29:39.936Z,102921.28
2023-02-28T03:32:15.763Z,102919.50
2023-02-28T03:34:47.648Z,102915.94
2023-02-28T03:37:21.793Z,102915.94
2023-02-28T03:39:53.281Z,102916.84
2023-02-28T03:42:24.060Z,102917.75
2023-02-28T03:44:55.823Z,102909.72
2023-02-28T03:47:27.324Z,102907.97
2023-02-28T03:49:58.369Z,102915.09
2023-02-28T03:52:31.940Z,102910.69
2023-02-28T03:55:04.445Z,102916.03
2023-02-28T03:57:38.087Z,102911.59
2023-02-28T04:00:09.394Z,102908.94
2023-02-28T04:02:37.729Z,102914.28
2023-02-28T04:05:06.390Z,102911.63
2023-02-28T04:07:35.983Z,102911.63
2023-02-28T04:10:04.472Z,102913.38
2023-02-28T04:12:32.599Z,102911.63
2023-02-28T04:15:00.662Z,102918.72
2023-02-28T04:17:28.755Z,102915.16
2023-02-28T04:19:58.462Z,102911.59
2023-02-28T04:22:27.949Z,102909.78
2023-02-28T04:24:57.410Z,102911.56
2023-02-28T04:27:25.497Z,102915.09
2023-02-28T04:29:53.538Z,102919.50
2023-02-28T04:32:21.684Z,102931.91
2023-02-28T04:34:49.836Z,102929.19
2023-02-28T04:37:17.938Z,102929.16
2023-02-28T04:39:46.123Z,102932.69
2023-02-28T04:42:15.770Z,102923.75
2023-02-28T04:44:43.857Z,102921.03
2023-02-28T04:47:11.924Z,102930.78
2023-02-28T04:49:40.172Z,102926.28
2023-02-28T04:52:08.600Z,102925.38
2023-02-28T04:54:36.713Z,102918.22
2023-02-28T04:57:05.416Z,102930.63
2023-02-28T04:59:34.884Z,102927.91
2023-02-28T05:02:07.614Z,102927.88
2023-02-28T05:04:36.205Z,102935.84
2023-02-28T05:07:04.539Z,102929.56
2023-02-28T05:09:33.892Z,102918.03
2023-02-28T05:12:01.995Z,102918.91
2023-02-28T05:14:30.107Z,102923.25
2023-02-28T05:16:59.525Z,102931.22
2023-02-28T05:19:27.577Z,102928.53
2023-02-28T05:21:56.897Z,102931.16
2023-02-28T05:24:24.951Z,102931.13
2023-02-28T05:26:54.294Z,102931.09
2023-02-28T05:29:22.629Z,102938.13
2023-02-28T05:31:51.212Z,102942.53
2023-02-28T05:34:20.851Z,102943.41
2023-02-28T05:36:48.986Z,102946.91
2023-02-28T05:39:17.048Z,102946.84
2023-02-28T05:41:45.678Z,102946.81
2023-02-28T05:44:13.746Z,102951.25
2023-02-28T05:46:41.833Z,102954.75
2023-02-28T05:49:09.963Z,102955.56
2023-02-28T05:51:40.963Z,102952.00
2023-02-28T05:54:09.659Z,102957.31
2023-02-28T05:56:40.079Z,102959.97
2023-02-28T05:59:08.463Z,102964.38
2023-02-28T06:01:38.413Z,102969.69
2023-02-28T06:04:10.979Z,102961.69
2023-02-28T06:06:42.001Z,102964.31
2023-02-28T06:09:10.064Z,102969.63
2023-02-28T06:11:39.852Z,102974.03
2023-02-28T06:14:09.485Z,102972.25
2023-02-28T06:16:37.799Z,102974.91
2023-02-28T06:19:06.528Z,102975.78
2023-02-28T06:21:34.768Z,102981.09
2023-02-28T06:24:04.841Z,102975.81
2023-02-28T06:26:32.978Z,102981.13
2023-02-28T06:29:01.694Z,102974.91
2023-02-28T06:31:30.329Z,102983.75
2023-02-28T06:33:58.872Z,102983.75
2023-02-28T06:36:26.981Z,102993.47
2023-02-28T06:38:56.505Z,102996.13
2023-02-28T06:41:28.656Z,102998.78
2023-02-28T06:43:57.386Z,103001.44
2023-02-28T06:46:25.650Z,103005.88
2023-02-28T06:48:53.782Z,103006.75
2023-02-28T06:51:23.394Z,103008.53
2023-02-28T06:53:51.786Z,102995.25
2023-02-28T06:56:21.150Z,102998.81
2023-02-28T06:58:51.582Z,103006.81
2023-02-28T07:01:20.021Z,102995.38
2023-02-28T07:03:53.039Z,103000.72
2023-02-28T07:06:23.500Z,103001.63
2023-02-28T07:08:52.391Z,103004.34
2023-02-28T07:11:20.698Z,102998.19
2023-02-28T07:13:50.144Z,103001.78
2023-02-28T07:16:18.328Z,103005.38
2023-02-28T07:18:46.606Z,103004.53
2023-02-28T07:21:14.824Z,103016.16
2023-02-28T07:23:43.016Z,103010.91
2023-02-28T07:26:15.708Z,103007.44
2023-02-28T07:28:44.310Z,103016.41
2023-02-28T07:31:15.060Z,103012.09
2023-02-28T07:33:43.425Z,103010.44
2023-02-28T07:36:16.269Z,103013.25
2023-02-28T07:38:47.084Z,103008.03
2023-02-28T07:41:16.669Z,103006.41
2023-02-28T07:43:45.629Z,103013.59
2023-02-28T07:46:17.604Z,103004.81
2023-02-28T07:48:46.374Z,103005.75
2023-02-28T07:51:14.615Z,103008.50
2023-02-28T07:53:42.753Z,103017.41
2023-02-28T07:56:11.695Z,103013.00
2023-02-28T07:58:39.756Z,103019.22
2023-02-28T08:01:09.076Z,103010.31
2023-02-28T08:03:39.850Z,103008.53
2023-02-28T08:06:10.528Z,103008.44
2023-02-28T08:08:38.820Z,103013.72
2023-02-28T08:11:07.263Z,102999.44
2023-02-28T08:13:35.394Z,103002.00
2023-02-28T08:16:04.818Z,103006.38
2023-02-28T08:18:34.073Z,103011.59
2023-02-28T08:21:08.263Z,103001.66
2023-02-28T08:23:36.333Z,103005.09
2023-02-28T08:26:05.224Z,103002.31
2023-02-28T08:28:33.519Z,103010.19
2023-02-28T08:31:01.837Z,103005.56
2023-02-28T08:33:30.088Z,103005.34
2023-02-28T08:35:58.492Z,103008.78
2023-02-28T08:38:27.934Z,103004.19
2023-02-28T08:41:00.530Z,103004.94
2023-02-28T08:43:28.894Z,103004.66
2023-02-28T08:45:58.356Z,103007.09
2023-02-28T08:48:26.727Z,103003.28
2023-02-28T08:51:06.611Z,103003.91
2023-02-28T08:53:37.419Z,102988.38
2023-02-28T08:56:07.172Z,102997.06
2023-02-28T08:58:35.678Z,102991.41
2023-02-28T09:01:10.350Z,102993.91
2023-02-28T09:03:38.625Z,102995.59
2023-02-28T09:06:07.139Z,102998.97
2023-02-28T09:08:35.281Z,103004.03
2023-02-28T09:11:05.174Z,102998.34
2023-02-28T09:13:34.358Z,102997.91
2023-02-28T09:16:03.554Z,103002.88
2023-02-28T09:18:31.765Z,103008.72
2023-02-28T09:20:59.987Z,103011.19
2023-02-28T09:23:28.205Z,103014.41
2023-02-28T09:25:57.006Z,103017.81
2023-02-28T09:28:26.610Z,103014.28
2023-02-28T09:30:56.107Z,103014.22
2023-02-28T09:33:25.045Z,103013.84
2023-02-28T09:35:59.364Z,103013.72
2023-02-28T09:38:27.697Z,103016.16
2023-02-28T09:40:58.231Z,103021.16
2023-02-28T09:43:31.014Z,103020.13
2023-02-28T09:46:02.515Z,103024.06
2023-02-28T09:48:35.907Z,103023.22
2023-02-28T09:51:06.291Z,103025.50
2023-02-28T09:53:36.458Z,103018.81
2023-02-28T09:56:07.810Z,103024.81
2023-02-28T09:58:43.974Z,103028.94
2023-02-28T10:01:20.874Z,103026.00
2023-02-28T10:03:54.558Z,103022.63
2023-02-28T10:06:25.415Z,103018.66
2023-02-28T10:08:59.041Z,103021.88
2023-02-28T10:11:28.058Z,103016.19
2023-02-28T10:14:03.361Z,103020.38
2023-02-28T10:16:35.616Z,103022.63
2023-02-28T10:19:07.041Z,103020.75
2023-02-28T10:21:39.046Z,103021.63
2023-02-28T10:24:17.938Z,103021.53
2023-02-28T10:26:47.340Z,103023.84
2023-02-28T10:29:17.420Z,103019.81
2023-02-28T10:31:45.587Z,103022.31
2023-02-28T10:34:14.609Z,103027.53
2023-02-28T10:36:45.135Z,103020.03
2023-02-28T10:39:39.422Z,103014.63
2023-02-28T10:42:20.209Z,103020.03
2023-02-28T10:44:49.863Z,103018.22
2023-02-28T10:47:18.996Z,103016.97
2023-02-28T10:49:51.073Z,103023.56
2023-02-28T10:52:38.622Z,103021.38
2023-02-28T10:55:26.024Z,103022.38
2023-02-28T10:57:54.859Z,103015.03
2023-02-28T11:00:27.205Z,103011.22
2023-02-28T11:02:55.400Z,103014.75
2023-02-28T11:05:28.586Z,103018.72
2023-02-28T11:07:57.898Z,103011.72
2023-02-28T11:10:29.586Z,102992.41
2023-02-28T11:13:00.554Z,102999.88
2023-02-28T11:15:31.893Z,103003.56
2023-02-28T11:18:01.943Z,102990.34
2023-02-28T11:20:32.480Z,102995.31
2023-02-28T11:23:03.566Z,102991.28
2023-02-28T11:25:33.384Z,102997.53
2023-02-28T11:28:06.558Z,102991.03
2023-02-28T11:30:38.305Z,102992.78
2023-02-28T11:33:28.573Z,102979.06
2023-02-28T11:35:59.474Z,102983.41
2023-02-28T11:38:28.824Z,102968.59
2023-02-28T11:41:11.621Z,102977.06
2023-02-28T11:43:54.171Z,102977.63
2023-02-28T11:46:32.651Z,102984.66
2023-02-28T11:49:09.133Z,102987.06
2023-02-28T11:51:46.676Z,102982.31
2023-02-28T11:54:29.929Z,102988.56
2023-02-28T11:57:02.206Z,102976.72
2023-02-28T11:59:49.189Z,102975.16
2023-02-28T12:02:30.741Z,102981.50
2023-02-28T12:05:22.743Z,102967.72
2023-02-28T12:08:00.554Z,102972.69
2023-02-28T12:10:30.281Z,102960.03
2023-02-28T12:13:10.128Z,102960.53
2023-02-28T12:15:48.459Z,102959.94
2023-02-28T12:18:41.890Z,102953.75
2023-02-28T12:21:17.114Z,102955.59
2023-02-28T12:24:02.516Z,102951.22
2023-02-28T12:26:37.089Z,102950.88
2023-02-28T12:29:11.524Z,102954.72
2023-02-28T12:31:43.916Z,102945.78
2023-02-28T12:34:21.463Z,102938.41
2023-02-28T12:36:50.704Z,102932.59
2023-02-28T12:39:24.043Z,102926.44
2023-02-28T12:41:56.132Z,102920.81
2023-02-28T12:44:42.775Z,102917.75
2023-02-28T12:47:14.966Z,102924.34
2023-02-28T12:49:48.755Z,102919.97
2023-02-28T12:52:19.612Z,102911.97
2023-02-28T12:54:53.981Z,102914.06
2023-02-28T12:57:27.632Z,102905.78
2023-02-28T12:59:58.663Z,102897.88
2023-02-28T13:02:54.838Z,102893.31
2023-02-28T13:05:46.251Z,102893.22
2023-02-28T13:08:44.954Z,102891.44
2023-02-28T13:11:30.258Z,102895.94
2023-02-28T13:14:01.106Z,102886.00
2023-02-28T13:16:29.487Z,102886.34
2023-02-28T13:19:11.789Z,102892.84
2023-02-28T13:21:48.916Z,102884.38
2023-02-28T13:24:46.639Z,102881.44
2023-02-28T13:27:40.478Z,102874.84
2023-02-28T13:30:45.069Z,102886.94
2023-02-28T13:33:30.468Z,102880.22
2023-02-28T13:36:13.268Z,102891.41
2023-02-28T13:38:44.280Z,102883.63
2023-02-28T13:41:44.500Z,102882.50
2023-02-28T13:44:24.195Z,102878.56
2023-02-28T13:47:25.599Z,102878.94
2023-02-28T13:49:54.425Z,102879.44
2023-02-28T13:52:25.654Z,102888.34
2023-02-28T13:55:09.694Z,102880.31
2023-02-28T13:57:46.559Z,102873.94
2023-02-28T14:00:25.994Z,102872.97
2023-02-28T14:03:10.043Z,102864.59
2023-02-28T14:05:39.774Z,102863.44
2023-02-28T14:08:14.435Z,102858.75
2023-02-28T14:10:45.949Z,102864.97
2023-02-28T14:13:37.965Z,102862.38
2023-02-28T14:16:08.246Z,102855.53
2023-02-28T14:18:37.423Z,102850.56
2023-02-28T14:21:15.043Z,102855.03
2023-02-28T14:24:18.954Z,102853.91
2023-02-28T14:26:58.969Z,102852.13
2023-02-28T14:29:48.994Z,102855.97
2023-02-28T14:32:27.157Z,102848.00
2023-02-28T14:34:57.888Z,102842.66
2023-02-28T14:37:29.033Z,102850.44
2023-02-28T14:39:58.197Z,102852.66
2023-02-28T14:42:34.402Z,102845.41
2023-02-28T14:45:03.322Z,102855.06
2023-02-28T14:47:34.817Z,102843.97
2023-02-28T14:50:04.691Z,102853.94
2023-02-28T14:52:34.018Z,102845.25
2023-02-28T14:55:05.845Z,102842.06
2023-02-28T14:57:36.362Z,102850.00
2023-02-28T15:00:13.903Z,102844.81
2023-02-28T15:02:44.607Z,102850.53
2023-02-28T15:05:24.615Z,102846.22
2023-02-28T15:08:04.234Z,102838.88
2023-02-28T15:10:32.770Z,102840.53
2023-02-28T15:13:02.482Z,102850.06
2023-02-28T15:15:40.696Z,102839.72
2023-02-28T15:18:24.045Z,102846.63
2023-02-28T15:20:53.077Z,102839.78
2023-02-28T15:23:22.744Z,102842.72
2023-02-28T15:25:51.794Z,102833.66
2023-02-28T15:28:21.858Z,102833.38
2023-02-28T15:30:55.235Z,102833.19
2023-02-28T15:33:27.095Z,102841.81
2023-02-28T15:36:06.901Z,102834.34
2023-02-28T15:38:37.243Z,102833.06
2023-02-28T15:41:09.120Z,102832.47
2023-02-28T15:43:38.725Z,102829.97
2023-02-28T15:46:08.671Z,102826.53
2023-02-28T15:48:40.575Z,102827.66
2023-02-28T15:51:11.321Z,102834.16
2023-02-28T15:53:42.948Z,102832.53
2023-02-28T15:56:20.880Z,102833.56
2023-02-28T15:58:49.048Z,102829.22
2023-02-28T16:01:26.195Z,102832.00
2023-02-28T16:03:57.885Z,102835.69
2023-02-28T16:06:36.402Z,102841.16
2023-02-28T16:09:06.423Z,102839.53
2023-02-28T16:11:35.252Z,102840.63
2023-02-28T16:14:04.073Z,102832.72
2023-02-28T16:16:34.739Z,102838.28
2023-02-28T16:19:04.415Z,102844.69
2023-02-28T16:21:32.864Z,102835.91
2023-02-28T16:24:00.937Z,102831.63
2023-02-28T16:26:29.280Z,102834.50
2023-02-28T16:28:57.450Z,102841.84
2023-02-28T16:31:25.528Z,102837.56
2023-02-28T16:33:53.894Z,102830.63
2023-02-28T16:36:26.196Z,102837.03
2023-02-28T16:38:54.290Z,102840.78
2023-02-28T16:41:24.700Z,102829.31
2023-02-28T16:43:59.543Z,102823.22
2023-02-28T16:46:30.348Z,102835.94
2023-02-28T16:48:58.478Z,102843.31
2023-02-28T16:51:28.442Z,102844.44
2023-02-28T16:53:56.661Z,102842.91
2023-02-28T16:56:26.356Z,102843.16
2023-02-28T16:58:56.672Z,102842.44
2023-02-28T17:01:24.899Z,102854.25
2023-02-28T17:03:53.125Z,102852.69
2023-02-28T17:06:23.029Z,102848.44
2023-02-28T17:08:53.197Z,102859.34
2023-02-28T17:11:21.864Z,102867.53
2023-02-28T17:13:50.174Z,102865.00
2023-02-28T17:16:24.804Z,102868.75
2023-02-28T17:18:53.463Z,102868.03
2023-02-28T17:21:21.777Z,102866.38
2023-02-28T17:23:49.858Z,102867.41
2023-02-28T17:26:22.106Z,102866.66
2023-02-28T17:28:51.869Z,102871.22
2023-02-28T17:31:20.111Z,102868.59
2023-02-28T17:33:48.266Z,102871.38
2023-02-28T17:36:17.446Z,102863.38
2023-02-28T17:38:45.780Z,102879.50
2023-02-28T17:41:13.950Z,102889.38
2023-02-28T17:43:43.582Z,102885.00
2023-02-28T17:46:17.005Z,102881.50
2023-02-28T17:48:45.121Z,102878.00
2023-02-28T17:51:14.756Z,102886.09
2023-02-28T17:53:43.054Z,102887.00
2023-02-28T17:56:15.167Z,102890.63
2023-02-28T17:58:44.908Z,102892.44
2023-02-28T18:01:13.504Z,102896.97
2023-02-28T18:03:41.824Z,102897.91
2023-02-28T18:06:15.850Z,102903.28
2023-02-28T18:08:44.088Z,102900.66
2023-02-28T18:11:18.170Z,102893.56
2023-02-28T18:13:49.492Z,102892.72
2023-02-28T18:16:18.814Z,102893.59
2023-02-28T18:18:47.398Z,102899.88
2023-02-28T18:21:16.995Z,102903.44
2023-02-28T18:23:48.904Z,102905.22
2023-02-28T18:26:18.439Z,102894.59
2023-02-28T18:28:48.210Z,102895.50
2023-02-28T18:31:18.939Z,102899.97
2023-02-28T18:33:50.255Z,102893.72
2023-02-28T18:36:19.143Z,102897.34
2023-02-28T18:38:47.334Z,102891.09
2023-02-28T18:41:15.430Z,102896.47
2023-02-28T18:43:43.871Z,102901.81
2023-02-28T18:46:15.874Z,102899.16
2023-02-28T18:48:44.579Z,102913.38
2023-02-28T18:51:14.384Z,102910.75
2023-02-28T18:53:43.947Z,102911.63
2023-02-28T18:56:14.236Z,102913.41
2023-02-28T18:58:42.773Z,102906.28
2023-02-28T19:01:18.475Z,102894.75
2023-02-28T19:03:46.831Z,102899.19
2023-02-28T19:06:15.715Z,102901.84
2023-02-28T19:08:43.949Z,102908.06
2023-02-28T19:11:13.411Z,102904.50
2023-02-28T19:13:41.748Z,102897.41
2023-02-28T19:16:11.247Z,102900.94
2023-02-28T19:18:41.333Z,102914.28
2023-02-28T19:21:10.364Z,102905.38
2023-02-28T19:23:38.964Z,102907.16
2023-02-28T19:26:08.562Z,102907.13
2023-02-28T19:28:37.029Z,102906.25
2023-02-28T19:31:05.676Z,102900.03
2023-02-28T19:33:33.775Z,102910.69
2023-02-28T19:36:03.250Z,102908.03
2023-02-28T19:38:31.518Z,102915.97
2023-02-28T19:41:02.882Z,102914.19
2023-02-28T19:43:31.361Z,102918.63
2023-02-28T19:46:00.285Z,102915.94
2023-02-28T19:48:28.588Z,102922.16
2023-02-28T19:51:00.071Z,102915.94
2023-02-28T19:53:31.935Z,102919.44
2023-02-28T19:56:00.458Z,102921.22
2023-02-28T19:58:29.200Z,102919.44
2023-02-28T20:00:57.386Z,102931.88
2023-02-28T20:03:25.488Z,102920.31
2023-02-28T20:06:01.711Z,102921.16
2023-02-28T20:08:31.433Z,102914.94
2023-02-28T20:11:04.181Z,102912.28
2023-02-28T20:13:32.321Z,102918.50
2023-02-28T20:16:01.949Z,102920.28
2023-02-28T20:18:30.372Z,102925.59
2023-02-28T20:20:58.451Z,102932.69
2023-02-28T20:23:26.983Z,102922.94
2023-02-28T20:26:00.720Z,102926.44
2023-02-28T20:28:28.975Z,102928.22
2023-02-28T20:30:57.331Z,102928.19
2023-02-28T20:33:28.293Z,102930.88
2023-02-28T20:36:00.715Z,102920.22
2023-02-28T20:38:29.188Z,102922.88
2023-02-28T20:41:00.280Z,102924.59
2023-02-28T20:43:28.609Z,102916.63
2023-02-28T20:45:58.720Z,102915.72
2023-02-28T20:48:27.410Z,102921.94
2023-02-28T20:50:57.161Z,102911.28
2023-02-28T20:53:26.162Z,102912.16
2023-02-28T20:56:00.133Z,102906.84
2023-02-28T20:58:29.681Z,102909.47
2023-02-28T21:01:02.035Z,102908.56
2023-02-28T21:03:30.265Z,102910.34
2023-02-28T21:06:02.923Z,102911.22
2023-02-28T21:08:31.458Z,102909.44
2023-02-28T21:11:01.102Z,102918.31
2023-02-28T21:13:29.278Z,102917.41
2023-02-28T21:15:58.138Z,102916.50
2023-02-28T21:18:26.376Z,102919.13
2023-02-28T21:20:54.912Z,102916.47
2023-02-28T21:23:23.376Z,102915.56
2023-02-28T21:25:51.675Z,102911.13
2023-02-28T21:28:21.403Z,102910.22
2023-02-28T21:30:49.574Z,102912.91
2023-02-28T21:33:17.753Z,102909.34
2023-02-28T21:35:47.455Z,102896.03
2023-02-28T21:38:15.654Z,102902.25
2023-02-28T21:40:43.716Z,102898.72
2023-02-28T21:43:11.817Z,102916.44
2023-02-28T21:45:41.360Z,102914.59
2023-02-28T21:48:10.533Z,102923.44
2023-02-28T21:50:38.599Z,102911.91
2023-02-28T21:53:06.712Z,102919.91
2023-02-28T21:55:35.579Z,102919.00
2023-02-28T21:58:03.812Z,102926.94
2023-02-28T22:00:32.026Z,102922.47
2023-02-28T22:03:01.573Z,102929.53
2023-02-28T22:05:31.179Z,102924.22
2023-02-28T22:07:59.278Z,102927.69
2023-02-28T22:10:27.372Z,102925.03
2023-02-28T22:12:55.590Z,102924.13
2023-02-28T22:15:24.224Z,102918.75
2023-02-28T22:17:52.356Z,102917.84
2023-02-28T22:20:21.849Z,102922.25
2023-02-28T22:22:50.111Z,102916.94
2023-02-28T22:25:18.701Z,102914.28
2023-02-28T22:27:46.795Z,102910.72
2023-02-28T22:30:15.311Z,102916.06
2023-02-28T22:32:43.401Z,102920.50
2023-02-28T22:35:11.511Z,102927.56
2023-02-28T22:37:40.942Z,102920.41
2023-02-28T22:40:11.140Z,102923.94
2023-02-28T22:42:39.227Z,102924.84
2023-02-28T22:45:08.210Z,102929.25
2023-02-28T22:47:36.321Z,102927.47
2023-02-28T22:50:04.672Z,102918.63
2023-02-28T22:52:32.751Z,102939.00
2023-02-28T22:55:02.230Z,102929.22
2023-02-28T22:57:30.292Z,102927.47
2023-02-28T22:59:58.425Z,102933.69
2023-02-28T23:02:26.529Z,102916.84
2023-02-28T23:04:56.199Z,102925.72
2023-02-28T23:07:24.349Z,102919.53
2023-02-28T23:09:54.674Z,102909.78
2023-02-28T23:12:24.225Z,102913.38
2023-02-28T23:14:52.487Z,102916.94
2023-02-28T23:17:20.599Z,102908.97
2023-02-28T23:19:48.722Z,102917.84
2023-02-28T23:22:16.802Z,102913.41
2023-02-28T23:24:45.056Z,102917.84
2023-02-28T23:27:13.819Z,102915.16
2023-02-28T23:29:43.698Z,102915.97
2023-02-28T23:32:11.936Z,102913.28
2023-02-28T23:34:40.117Z,102919.41
2023-02-28T23:37:08.214Z,102914.94
2023-02-28T23:39:36.338Z,102914.91
2023-02-28T23:42:04.733Z,102908.66
2023-02-28T23:44:32.835Z,102910.41
2023-02-28T23:47:02.314Z,102913.03
2023-02-28T23:49:30.398Z,102908.59
2023-02-28T23:51:58.474Z,102905.06
2023-02-28T23:54:26.568Z,102901.53
2023-02-28T23:56:56.319Z,102904.16
2023-02-28T23:59:24.438Z,102907.69
